EHSC

Goeree Le Sea

Goeree Le Sea, The Netherlands
METAR EHSC 221325Z AUTO 01014KT 9999 ///////// 13/05 Q1034 W16/H16
Observed Flight Rules
Oct-22 @ 13:25 UTC (55 minutes ago)
Wind Visibility
10° at 14 knots 10,000+ meters
Temperatures Readings
Current 13°C / 55°F
Dewpoint 5°C / 41°F
Humidity 59%
Altimeter 30.53" Hg
Pressure 1034 hPa
Elevation 50
METAR EHSC 221325Z AUTO 01014KT 9999 ///////// 13/05 Q1034 W16/H16
Observed Flight Rules
Oct-22 @ 13:25 UTC
(55 minutes ago)
Wind Visibility
10° at 14 knots 10,000+ meters
Temperature Dewpoint
13°C / 55°F 5°C / 41°F
Humidity Altimeter Pressure
59% 30.53" Hg 1034 hPa